sensor_id;sensor_type;location;lat;lon;timestamp;temperature;humidity
44894;DHT22;30625;52.206;21.030;2023-01-13T00:00:17;6.80;99.90
44894;DHT22;30625;52.206;21.030;2023-01-13T00:02:43;6.80;99.90
44894;DHT22;30625;52.206;21.030;2023-01-13T00:05:12;6.80;99.90
44894;DHT22;30625;52.206;21.030;2023-01-13T00:07:38;6.80;99.90
44894;DHT22;30625;52.206;21.030;2023-01-13T00:10:09;6.80;99.90
44894;DHT22;30625;52.206;21.030;2023-01-13T00:12:39;6.90;99.90
44894;DHT22;30625;52.206;21.030;2023-01-13T00:15:05;6.90;99.90
44894;DHT22;30625;52.206;21.030;2023-01-13T00:17:31;7.00;99.90
44894;DHT22;30625;52.206;21.030;2023-01-13T00:19:57;6.90;99.90
44894;DHT22;30625;52.206;21.030;2023-01-13T00:22:23;6.80;99.90
44894;DHT22;30625;52.206;21.030;2023-01-13T00:24:49;6.90;99.90
44894;DHT22;30625;52.206;21.030;2023-01-13T00:27:14;6.80;99.90
44894;DHT22;30625;52.206;21.030;2023-01-13T00:29:40;6.90;99.90
44894;DHT22;30625;52.206;21.030;2023-01-13T00:32:06;6.80;99.90
44894;DHT22;30625;52.206;21.030;2023-01-13T00:34:32;6.80;99.90
44894;DHT22;30625;52.206;21.030;2023-01-13T00:36:57;6.80;99.90
44894;DHT22;30625;52.206;21.030;2023-01-13T00:39:23;6.90;99.90
44894;DHT22;30625;52.206;21.030;2023-01-13T00:41:49;6.80;99.90
44894;DHT22;30625;52.206;21.030;2023-01-13T00:44:33;6.80;99.90
44894;DHT22;30625;52.206;21.030;2023-01-13T00:46:59;6.80;99.90
44894;DHT22;30625;52.206;21.030;2023-01-13T00:49:25;6.80;99.90
44894;DHT22;30625;52.206;21.030;2023-01-13T00:51:51;6.70;99.90
44894;DHT22;30625;52.206;21.030;2023-01-13T00:54:16;6.70;99.90
44894;DHT22;30625;52.206;21.030;2023-01-13T00:56:43;6.80;99.90
44894;DHT22;30625;52.206;21.030;2023-01-13T00:59:12;6.70;99.90
44894;DHT22;30625;52.206;21.030;2023-01-13T01:01:39;6.70;99.90
44894;DHT22;30625;52.206;21.030;2023-01-13T01:04:05;6.70;99.90
44894;DHT22;30625;52.206;21.030;2023-01-13T01:06:31;6.70;99.90
44894;DHT22;30625;52.206;21.030;2023-01-13T01:08:56;6.70;99.90
44894;DHT22;30625;52.206;21.030;2023-01-13T01:11:24;6.70;99.90
44894;DHT22;30625;52.206;21.030;2023-01-13T01:13:52;6.70;99.90
44894;DHT22;30625;52.206;21.030;2023-01-13T01:16:21;6.60;99.90
44894;DHT22;30625;52.206;21.030;2023-01-13T01:18:48;6.60;99.90
44894;DHT22;30625;52.206;21.030;2023-01-13T01:21:15;6.60;99.90
44894;DHT22;30625;52.206;21.030;2023-01-13T01:23:41;6.50;99.90
44894;DHT22;30625;52.206;21.030;2023-01-13T01:26:09;6.50;99.90
44894;DHT22;30625;52.206;21.030;2023-01-13T01:28:35;6.50;99.90
44894;DHT22;30625;52.206;21.030;2023-01-13T01:31:14;6.50;99.90
44894;DHT22;30625;52.206;21.030;2023-01-13T01:33:40;6.50;99.90
44894;DHT22;30625;52.206;21.030;2023-01-13T01:36:06;6.60;99.90
44894;DHT22;30625;52.206;21.030;2023-01-13T01:38:32;6.60;99.90
44894;DHT22;30625;52.206;21.030;2023-01-13T01:40:59;6.70;99.90
44894;DHT22;30625;52.206;21.030;2023-01-13T01:43:48;6.60;99.90
44894;DHT22;30625;52.206;21.030;2023-01-13T01:46:40;6.60;99.90
44894;DHT22;30625;52.206;21.030;2023-01-13T01:49:31;6.60;99.90
44894;DHT22;30625;52.206;21.030;2023-01-13T01:54:54;6.60;99.90
44894;DHT22;30625;52.206;21.030;2023-01-13T01:57:29;6.50;99.90
44894;DHT22;30625;52.206;21.030;2023-01-13T01:59:58;6.50;99.90
44894;DHT22;30625;52.206;21.030;2023-01-13T02:02:27;6.50;99.90
44894;DHT22;30625;52.206;21.030;2023-01-13T02:04:53;6.50;99.90
44894;DHT22;30625;52.206;21.030;2023-01-13T02:07:25;6.50;99.90
44894;DHT22;30625;52.206;21.030;2023-01-13T02:09:54;6.60;99.90
44894;DHT22;30625;52.206;21.030;2023-01-13T02:12:20;6.50;99.90
44894;DHT22;30625;52.206;21.030;2023-01-13T02:15:08;6.50;99.90
44894;DHT22;30625;52.206;21.030;2023-01-13T02:32:31;6.60;99.90
44894;DHT22;30625;52.206;21.030;2023-01-13T02:35:20;6.60;99.90
44894;DHT22;30625;52.206;21.030;2023-01-13T02:37:44;6.60;99.90
44894;DHT22;30625;52.206;21.030;2023-01-13T02:40:33;6.60;99.90
44894;DHT22;30625;52.206;21.030;2023-01-13T02:43:16;6.60;99.90
44894;DHT22;30625;52.206;21.030;2023-01-13T02:46:30;6.60;99.90
44894;DHT22;30625;52.206;21.030;2023-01-13T02:48:56;6.50;99.90
44894;DHT22;30625;52.206;21.030;2023-01-13T02:51:26;6.60;99.90
44894;DHT22;30625;52.206;21.030;2023-01-13T02:53:57;6.60;99.90
44894;DHT22;30625;52.206;21.030;2023-01-13T02:56:25;6.60;99.90
44894;DHT22;30625;52.206;21.030;2023-01-13T02:58:54;6.60;99.90
44894;DHT22;30625;52.206;21.030;2023-01-13T03:01:20;6.60;99.90
44894;DHT22;30625;52.206;21.030;2023-01-13T03:03:46;6.60;99.90
44894;DHT22;30625;52.206;21.030;2023-01-13T03:11:43;6.70;99.90
44894;DHT22;30625;52.206;21.030;2023-01-13T03:14:35;6.60;99.90
44894;DHT22;30625;52.206;21.030;2023-01-13T03:17:38;6.60;99.90
44894;DHT22;30625;52.206;21.030;2023-01-13T03:20:31;6.60;99.90
44894;DHT22;30625;52.206;21.030;2023-01-13T03:23:18;6.60;99.90
44894;DHT22;30625;52.206;21.030;2023-01-13T03:26:06;6.60;99.90
44894;DHT22;30625;52.206;21.030;2023-01-13T03:28:38;6.60;99.90
44894;DHT22;30625;52.206;21.030;2023-01-13T03:31:14;6.60;99.90
44894;DHT22;30625;52.206;21.030;2023-01-13T03:33:55;6.70;99.90
44894;DHT22;30625;52.206;21.030;2023-01-13T03:36:25;6.70;99.90
44894;DHT22;30625;52.206;21.030;2023-01-13T03:39:08;6.70;99.90
44894;DHT22;30625;52.206;21.030;2023-01-13T03:41:40;6.70;99.90
44894;DHT22;30625;52.206;21.030;2023-01-13T03:44:21;6.70;99.90
44894;DHT22;30625;52.206;21.030;2023-01-13T03:49:30;6.70;99.90
44894;DHT22;30625;52.206;21.030;2023-01-13T03:52:03;6.80;99.90
44894;DHT22;30625;52.206;21.030;2023-01-13T03:54:32;6.70;99.90
44894;DHT22;30625;52.206;21.030;2023-01-13T03:57:06;6.60;99.90
44894;DHT22;30625;52.206;21.030;2023-01-13T03:59:37;6.70;99.90
44894;DHT22;30625;52.206;21.030;2023-01-13T04:02:42;6.70;99.90
44894;DHT22;30625;52.206;21.030;2023-01-13T04:05:10;6.70;99.90
44894;DHT22;30625;52.206;21.030;2023-01-13T04:10:20;6.60;99.90
44894;DHT22;30625;52.206;21.030;2023-01-13T04:12:52;6.50;99.90
44894;DHT22;30625;52.206;21.030;2023-01-13T04:15:34;6.50;99.90
44894;DHT22;30625;52.206;21.030;2023-01-13T04:18:07;6.50;99.90
44894;DHT22;30625;52.206;21.030;2023-01-13T04:20:33;6.50;99.90
44894;DHT22;30625;52.206;21.030;2023-01-13T04:22:59;6.50;99.90
44894;DHT22;30625;52.206;21.030;2023-01-13T04:25:25;6.50;99.90
44894;DHT22;30625;52.206;21.030;2023-01-13T04:27:51;6.50;99.90
44894;DHT22;30625;52.206;21.030;2023-01-13T04:30:16;6.50;99.90
44894;DHT22;30625;52.206;21.030;2023-01-13T04:32:42;6.50;99.90
44894;DHT22;30625;52.206;21.030;2023-01-13T04:35:08;6.50;99.90
44894;DHT22;30625;52.206;21.030;2023-01-13T04:37:33;6.50;99.90
44894;DHT22;30625;52.206;21.030;2023-01-13T04:39:59;6.70;99.90
44894;DHT22;30625;52.206;21.030;2023-01-13T04:42:25;6.60;99.90
44894;DHT22;30625;52.206;21.030;2023-01-13T04:44:50;6.60;99.90
44894;DHT22;30625;52.206;21.030;2023-01-13T04:47:16;6.60;99.90
44894;DHT22;30625;52.206;21.030;2023-01-13T04:49:41;6.60;99.90
44894;DHT22;30625;52.206;21.030;2023-01-13T04:52:07;6.60;99.90
44894;DHT22;30625;52.206;21.030;2023-01-13T04:54:33;6.50;99.90
44894;DHT22;30625;52.206;21.030;2023-01-13T04:56:59;6.50;99.90
44894;DHT22;30625;52.206;21.030;2023-01-13T04:59:24;6.50;99.90
44894;DHT22;30625;52.206;21.030;2023-01-13T05:01:50;6.50;99.90
44894;DHT22;30625;52.206;21.030;2023-01-13T05:04:16;6.50;99.90
44894;DHT22;30625;52.206;21.030;2023-01-13T05:06:41;6.50;99.90
44894;DHT22;30625;52.206;21.030;2023-01-13T05:09:07;6.50;99.90
44894;DHT22;30625;52.206;21.030;2023-01-13T05:11:33;6.50;99.90
44894;DHT22;30625;52.206;21.030;2023-01-13T05:14:17;6.60;99.90
44894;DHT22;30625;52.206;21.030;2023-01-13T05:17:01;6.60;99.90
44894;DHT22;30625;52.206;21.030;2023-01-13T05:19:33;6.60;99.90
44894;DHT22;30625;52.206;21.030;2023-01-13T05:22:00;6.60;99.90
44894;DHT22;30625;52.206;21.030;2023-01-13T05:24:45;6.60;99.90
44894;DHT22;30625;52.206;21.030;2023-01-13T05:27:30;6.60;99.90
44894;DHT22;30625;52.206;21.030;2023-01-13T05:29:56;6.50;99.90
44894;DHT22;30625;52.206;21.030;2023-01-13T05:32:22;6.60;99.90
44894;DHT22;30625;52.206;21.030;2023-01-13T05:34:48;6.50;99.90
44894;DHT22;30625;52.206;21.030;2023-01-13T05:37:14;6.40;99.90
44894;DHT22;30625;52.206;21.030;2023-01-13T05:39:40;6.40;99.90
44894;DHT22;30625;52.206;21.030;2023-01-13T05:42:24;6.40;99.90
44894;DHT22;30625;52.206;21.030;2023-01-13T05:45:09;6.30;99.90
44894;DHT22;30625;52.206;21.030;2023-01-13T05:47:34;6.20;99.90
44894;DHT22;30625;52.206;21.030;2023-01-13T05:50:00;6.10;99.90
44894;DHT22;30625;52.206;21.030;2023-01-13T05:52:26;6.00;99.90
44894;DHT22;30625;52.206;21.030;2023-01-13T05:54:52;5.90;99.90
44894;DHT22;30625;52.206;21.030;2023-01-13T05:57:18;5.90;99.90
44894;DHT22;30625;52.206;21.030;2023-01-13T05:59:43;5.90;99.90
44894;DHT22;30625;52.206;21.030;2023-01-13T06:02:09;5.80;99.90
44894;DHT22;30625;52.206;21.030;2023-01-13T06:04:35;5.80;99.90
44894;DHT22;30625;52.206;21.030;2023-01-13T06:07:00;6.40;99.90
44894;DHT22;30625;52.206;21.030;2023-01-13T06:09:26;5.90;99.90
44894;DHT22;30625;52.206;21.030;2023-01-13T06:11:51;5.80;99.90
44894;DHT22;30625;52.206;21.030;2023-01-13T06:14:17;5.80;99.90
44894;DHT22;30625;52.206;21.030;2023-01-13T06:16:43;5.80;99.90
44894;DHT22;30625;52.206;21.030;2023-01-13T06:19:10;5.80;99.90
44894;DHT22;30625;52.206;21.030;2023-01-13T06:21:38;5.80;99.90
44894;DHT22;30625;52.206;21.030;2023-01-13T06:24:03;5.80;99.90
44894;DHT22;30625;52.206;21.030;2023-01-13T06:26:41;5.80;99.90
44894;DHT22;30625;52.206;21.030;2023-01-13T06:29:07;5.90;99.90
44894;DHT22;30625;52.206;21.030;2023-01-13T06:31:36;5.90;99.90
44894;DHT22;30625;52.206;21.030;2023-01-13T06:34:09;5.80;99.90
44894;DHT22;30625;52.206;21.030;2023-01-13T06:36:45;5.80;99.90
44894;DHT22;30625;52.206;21.030;2023-01-13T06:39:16;5.90;99.90
44894;DHT22;30625;52.206;21.030;2023-01-13T06:41:43;5.90;99.90
44894;DHT22;30625;52.206;21.030;2023-01-13T06:44:28;5.90;99.90
44894;DHT22;30625;52.206;21.030;2023-01-13T06:46:53;5.90;99.90
44894;DHT22;30625;52.206;21.030;2023-01-13T06:49:19;5.90;99.90
44894;DHT22;30625;52.206;21.030;2023-01-13T06:51:44;5.90;99.90
44894;DHT22;30625;52.206;21.030;2023-01-13T06:54:11;5.90;99.90
44894;DHT22;30625;52.206;21.030;2023-01-13T06:56:36;5.80;99.90
44894;DHT22;30625;52.206;21.030;2023-01-13T06:59:02;5.80;99.90
44894;DHT22;30625;52.206;21.030;2023-01-13T07:01:28;5.90;99.90
44894;DHT22;30625;52.206;21.030;2023-01-13T07:03:54;5.90;99.90
44894;DHT22;30625;52.206;21.030;2023-01-13T07:06:20;5.90;99.90
44894;DHT22;30625;52.206;21.030;2023-01-13T07:08:45;5.90;99.90
44894;DHT22;30625;52.206;21.030;2023-01-13T07:11:11;5.90;99.90
44894;DHT22;30625;52.206;21.030;2023-01-13T07:13:36;6.00;99.90
44894;DHT22;30625;52.206;21.030;2023-01-13T07:16:20;6.00;99.90
44894;DHT22;30625;52.206;21.030;2023-01-13T07:18:48;6.00;99.90
44894;DHT22;30625;52.206;21.030;2023-01-13T07:21:14;6.00;99.90
44894;DHT22;30625;52.206;21.030;2023-01-13T07:23:44;6.00;99.90
44894;DHT22;30625;52.206;21.030;2023-01-13T07:26:10;6.00;99.90
44894;DHT22;30625;52.206;21.030;2023-01-13T07:28:37;6.10;99.90
44894;DHT22;30625;52.206;21.030;2023-01-13T07:31:03;6.10;99.90
44894;DHT22;30625;52.206;21.030;2023-01-13T07:33:28;6.10;99.90
44894;DHT22;30625;52.206;21.030;2023-01-13T07:36:02;6.10;99.90
44894;DHT22;30625;52.206;21.030;2023-01-13T07:38:29;6.10;99.90
44894;DHT22;30625;52.206;21.030;2023-01-13T07:40:55;6.00;99.90
44894;DHT22;30625;52.206;21.030;2023-01-13T07:43:21;6.10;99.90
44894;DHT22;30625;52.206;21.030;2023-01-13T07:46:01;6.10;99.90
44894;DHT22;30625;52.206;21.030;2023-01-13T07:48:29;6.10;99.90
44894;DHT22;30625;52.206;21.030;2023-01-13T07:50:55;6.10;99.90
44894;DHT22;30625;52.206;21.030;2023-01-13T07:53:22;6.20;99.90
44894;DHT22;30625;52.206;21.030;2023-01-13T07:55:49;6.20;99.90
44894;DHT22;30625;52.206;21.030;2023-01-13T07:58:15;6.20;99.90
44894;DHT22;30625;52.206;21.030;2023-01-13T08:00:41;6.20;99.90
44894;DHT22;30625;52.206;21.030;2023-01-13T08:03:06;5.70;99.90
44894;DHT22;30625;52.206;21.030;2023-01-13T08:05:34;6.20;99.90
44894;DHT22;30625;52.206;21.030;2023-01-13T08:08:00;6.10;99.90
44894;DHT22;30625;52.206;21.030;2023-01-13T08:10:26;6.20;99.90
44894;DHT22;30625;52.206;21.030;2023-01-13T08:12:51;6.20;99.90
44894;DHT22;30625;52.206;21.030;2023-01-13T08:15:36;6.20;99.90
44894;DHT22;30625;52.206;21.030;2023-01-13T08:18:02;6.20;99.90
44894;DHT22;30625;52.206;21.030;2023-01-13T08:20:27;6.20;99.90
44894;DHT22;30625;52.206;21.030;2023-01-13T08:22:58;6.20;99.90
44894;DHT22;30625;52.206;21.030;2023-01-13T08:25:25;6.30;99.90
44894;DHT22;30625;52.206;21.030;2023-01-13T08:27:51;6.30;99.90
44894;DHT22;30625;52.206;21.030;2023-01-13T08:30:17;6.30;99.90
44894;DHT22;30625;52.206;21.030;2023-01-13T08:32:47;6.30;99.90
44894;DHT22;30625;52.206;21.030;2023-01-13T08:35:14;6.30;99.90
44894;DHT22;30625;52.206;21.030;2023-01-13T08:37:40;6.30;99.90
44894;DHT22;30625;52.206;21.030;2023-01-13T08:40:07;6.30;99.90
44894;DHT22;30625;52.206;21.030;2023-01-13T08:42:33;6.40;99.90
44894;DHT22;30625;52.206;21.030;2023-01-13T08:44:59;6.40;99.90
44894;DHT22;30625;52.206;21.030;2023-01-13T08:47:26;7.30;99.90
44894;DHT22;30625;52.206;21.030;2023-01-13T08:49:52;6.50;99.90
44894;DHT22;30625;52.206;21.030;2023-01-13T08:52:18;6.50;99.90
44894;DHT22;30625;52.206;21.030;2023-01-13T08:54:44;6.50;99.90
44894;DHT22;30625;52.206;21.030;2023-01-13T08:57:10;6.40;99.90
44894;DHT22;30625;52.206;21.030;2023-01-13T08:59:35;6.50;99.90
44894;DHT22;30625;52.206;21.030;2023-01-13T09:02:01;6.50;99.90
44894;DHT22;30625;52.206;21.030;2023-01-13T09:04:29;6.50;99.90
44894;DHT22;30625;52.206;21.030;2023-01-13T09:06:55;6.50;99.90
44894;DHT22;30625;52.206;21.030;2023-01-13T09:09:21;6.50;99.90
44894;DHT22;30625;52.206;21.030;2023-01-13T09:11:49;6.50;99.90
44894;DHT22;30625;52.206;21.030;2023-01-13T09:14:36;6.50;99.90
44894;DHT22;30625;52.206;21.030;2023-01-13T09:17:02;6.50;99.90
44894;DHT22;30625;52.206;21.030;2023-01-13T09:19:28;6.40;99.90
44894;DHT22;30625;52.206;21.030;2023-01-13T09:21:54;6.40;99.90
44894;DHT22;30625;52.206;21.030;2023-01-13T09:24:21;6.50;99.90
44894;DHT22;30625;52.206;21.030;2023-01-13T09:26:47;6.50;99.90
44894;DHT22;30625;52.206;21.030;2023-01-13T09:29:13;6.50;99.90
44894;DHT22;30625;52.206;21.030;2023-01-13T09:31:38;6.40;99.90
44894;DHT22;30625;52.206;21.030;2023-01-13T09:34:05;6.50;99.90
44894;DHT22;30625;52.206;21.030;2023-01-13T09:36:50;6.50;99.90
44894;DHT22;30625;52.206;21.030;2023-01-13T09:39:16;6.60;99.90
44894;DHT22;30625;52.206;21.030;2023-01-13T09:41:55;6.50;99.90
44894;DHT22;30625;52.206;21.030;2023-01-13T09:49:49;6.50;99.90
44894;DHT22;30625;52.206;21.030;2023-01-13T09:52:23;6.40;99.90
44894;DHT22;30625;52.206;21.030;2023-01-13T09:55:08;6.60;99.90
44894;DHT22;30625;52.206;21.030;2023-01-13T09:57:37;6.60;99.90
44894;DHT22;30625;52.206;21.030;2023-01-13T10:00:11;6.60;99.90
44894;DHT22;30625;52.206;21.030;2023-01-13T10:05:43;6.70;99.90
44894;DHT22;30625;52.206;21.030;2023-01-13T10:08:21;6.70;99.90
44894;DHT22;30625;52.206;21.030;2023-01-13T10:10:49;6.70;99.90
44894;DHT22;30625;52.206;21.030;2023-01-13T10:13:23;6.70;99.90
44894;DHT22;30625;52.206;21.030;2023-01-13T10:21:54;6.80;99.90
44894;DHT22;30625;52.206;21.030;2023-01-13T10:24:53;6.80;99.90
44894;DHT22;30625;52.206;21.030;2023-01-13T10:29:54;6.90;99.90
44894;DHT22;30625;52.206;21.030;2023-01-13T10:32:19;6.90;99.90
44894;DHT22;30625;52.206;21.030;2023-01-13T10:34:50;6.90;99.90
44894;DHT22;30625;52.206;21.030;2023-01-13T10:37:25;6.10;99.90
44894;DHT22;30625;52.206;21.030;2023-01-13T10:39:55;6.90;99.90
44894;DHT22;30625;52.206;21.030;2023-01-13T10:42:22;7.00;99.90
44894;DHT22;30625;52.206;21.030;2023-01-13T10:44:49;7.00;99.90
44894;DHT22;30625;52.206;21.030;2023-01-13T10:47:28;7.10;99.90
44894;DHT22;30625;52.206;21.030;2023-01-13T10:52:40;7.10;99.90
44894;DHT22;30625;52.206;21.030;2023-01-13T10:57:50;7.10;99.90
44894;DHT22;30625;52.206;21.030;2023-01-13T11:00:28;7.10;99.90
44894;DHT22;30625;52.206;21.030;2023-01-13T11:03:14;7.10;99.90
44894;DHT22;30625;52.206;21.030;2023-01-13T11:05:47;7.10;99.90
44894;DHT22;30625;52.206;21.030;2023-01-13T11:08:16;7.20;99.90
44894;DHT22;30625;52.206;21.030;2023-01-13T11:10:45;7.20;99.90
44894;DHT22;30625;52.206;21.030;2023-01-13T11:18:46;7.20;99.90
44894;DHT22;30625;52.206;21.030;2023-01-13T11:24:33;7.20;99.90
44894;DHT22;30625;52.206;21.030;2023-01-13T11:27:06;7.20;99.90
44894;DHT22;30625;52.206;21.030;2023-01-13T11:29:57;7.20;99.90
44894;DHT22;30625;52.206;21.030;2023-01-13T11:32:28;7.20;99.90
44894;DHT22;30625;52.206;21.030;2023-01-13T11:35:00;7.30;99.90
44894;DHT22;30625;52.206;21.030;2023-01-13T11:37:30;7.30;99.90
44894;DHT22;30625;52.206;21.030;2023-01-13T11:45:02;7.10;99.90
44894;DHT22;30625;52.206;21.030;2023-01-13T11:47:30;7.40;99.90
44894;DHT22;30625;52.206;21.030;2023-01-13T11:49:56;7.40;99.90
44894;DHT22;30625;52.206;21.030;2023-01-13T11:58:07;7.60;99.90
44894;DHT22;30625;52.206;21.030;2023-01-13T12:03:52;7.60;99.90
44894;DHT22;30625;52.206;21.030;2023-01-13T12:06:36;7.60;99.90
44894;DHT22;30625;52.206;21.030;2023-01-13T12:24:09;7.70;99.90
44894;DHT22;30625;52.206;21.030;2023-01-13T12:26:41;7.70;99.90
44894;DHT22;30625;52.206;21.030;2023-01-13T12:29:16;7.70;99.90
44894;DHT22;30625;52.206;21.030;2023-01-13T12:31:49;7.70;99.90
44894;DHT22;30625;52.206;21.030;2023-01-13T12:34:23;7.70;99.90
44894;DHT22;30625;52.206;21.030;2023-01-13T12:37:13;7.70;99.90
44894;DHT22;30625;52.206;21.030;2023-01-13T12:45:26;7.80;99.90
44894;DHT22;30625;52.206;21.030;2023-01-13T12:47:53;7.90;99.90
44894;DHT22;30625;52.206;21.030;2023-01-13T12:52:55;8.20;99.90
44894;DHT22;30625;52.206;21.030;2023-01-13T13:05:43;8.30;99.90
44894;DHT22;30625;52.206;21.030;2023-01-13T13:14:04;8.40;99.90
44894;DHT22;30625;52.206;21.030;2023-01-13T13:30:37;7.10;99.90
44894;DHT22;30625;52.206;21.030;2023-01-13T13:41:27;8.60;99.90
44894;DHT22;30625;52.206;21.030;2023-01-13T13:44:30;8.60;99.90
44894;DHT22;30625;52.206;21.030;2023-01-13T13:47:16;8.60;99.90
44894;DHT22;30625;52.206;21.030;2023-01-13T13:49:43;8.60;99.90
44894;DHT22;30625;52.206;21.030;2023-01-13T13:54:53;8.60;99.90
44894;DHT22;30625;52.206;21.030;2023-01-13T13:57:36;8.70;99.90
44894;DHT22;30625;52.206;21.030;2023-01-13T14:02:51;8.50;99.90
44894;DHT22;30625;52.206;21.030;2023-01-13T14:05:23;8.50;99.90
44894;DHT22;30625;52.206;21.030;2023-01-13T14:08:16;8.50;99.90
44894;DHT22;30625;52.206;21.030;2023-01-13T14:13:22;8.60;99.90
44894;DHT22;30625;52.206;21.030;2023-01-13T14:15:56;8.60;99.90
44894;DHT22;30625;52.206;21.030;2023-01-13T14:18:23;8.60;99.90
44894;DHT22;30625;52.206;21.030;2023-01-13T14:28:37;8.60;99.90
44894;DHT22;30625;52.206;21.030;2023-01-13T14:31:07;8.60;99.90
44894;DHT22;30625;52.206;21.030;2023-01-13T14:33:40;8.60;99.90
44894;DHT22;30625;52.206;21.030;2023-01-13T14:41:33;8.60;99.90
44894;DHT22;30625;52.206;21.030;2023-01-13T14:44:24;8.60;99.90
44894;DHT22;30625;52.206;21.030;2023-01-13T14:46:48;8.70;99.90
44894;DHT22;30625;52.206;21.030;2023-01-13T14:51:43;8.60;99.90
44894;DHT22;30625;52.206;21.030;2023-01-13T14:57:14;8.60;99.90
44894;DHT22;30625;52.206;21.030;2023-01-13T14:59:54;8.70;99.90
44894;DHT22;30625;52.206;21.030;2023-01-13T15:04:57;8.70;99.90
44894;DHT22;30625;52.206;21.030;2023-01-13T15:07:39;8.70;99.90
44894;DHT22;30625;52.206;21.030;2023-01-13T15:10:15;8.60;99.90
44894;DHT22;30625;52.206;21.030;2023-01-13T15:12:42;8.60;99.90
44894;DHT22;30625;52.206;21.030;2023-01-13T15:15:30;8.70;99.90
44894;DHT22;30625;52.206;21.030;2023-01-13T15:17:58;8.60;99.90
44894;DHT22;30625;52.206;21.030;2023-01-13T15:20:24;8.60;99.90
44894;DHT22;30625;52.206;21.030;2023-01-13T15:22:53;8.70;99.90
44894;DHT22;30625;52.206;21.030;2023-01-13T15:25:19;8.70;99.90
44894;DHT22;30625;52.206;21.030;2023-01-13T15:27:46;8.70;99.90
44894;DHT22;30625;52.206;21.030;2023-01-13T15:30:25;8.80;99.90
44894;DHT22;30625;52.206;21.030;2023-01-13T15:32:52;8.80;99.90
44894;DHT22;30625;52.206;21.030;2023-01-13T15:35:20;8.80;99.90
44894;DHT22;30625;52.206;21.030;2023-01-13T15:37:47;8.80;99.90
44894;DHT22;30625;52.206;21.030;2023-01-13T15:40:22;8.80;99.90
44894;DHT22;30625;52.206;21.030;2023-01-13T15:42:48;8.80;99.90
44894;DHT22;30625;52.206;21.030;2023-01-13T15:45:34;8.80;99.90
44894;DHT22;30625;52.206;21.030;2023-01-13T15:48:21;8.80;99.90
44894;DHT22;30625;52.206;21.030;2023-01-13T15:50:47;8.80;99.90
44894;DHT22;30625;52.206;21.030;2023-01-13T15:53:13;8.80;99.90
44894;DHT22;30625;52.206;21.030;2023-01-13T15:55:41;8.80;99.90
44894;DHT22;30625;52.206;21.030;2023-01-13T15:58:10;8.70;99.90
44894;DHT22;30625;52.206;21.030;2023-01-13T16:00:36;8.80;99.90
44894;DHT22;30625;52.206;21.030;2023-01-13T16:03:02;8.80;99.90
44894;DHT22;30625;52.206;21.030;2023-01-13T16:05:28;8.70;99.90
44894;DHT22;30625;52.206;21.030;2023-01-13T16:07:54;8.70;99.90
44894;DHT22;30625;52.206;21.030;2023-01-13T16:10:23;8.80;99.90
44894;DHT22;30625;52.206;21.030;2023-01-13T16:12:49;8.80;99.90
44894;DHT22;30625;52.206;21.030;2023-01-13T16:15:16;8.80;99.90
44894;DHT22;30625;52.206;21.030;2023-01-13T16:17:44;8.80;99.90
44894;DHT22;30625;52.206;21.030;2023-01-13T16:20:14;8.80;99.90
44894;DHT22;30625;52.206;21.030;2023-01-13T16:22:40;8.80;99.90
44894;DHT22;30625;52.206;21.030;2023-01-13T16:25:08;8.80;99.90
44894;DHT22;30625;52.206;21.030;2023-01-13T16:27:39;8.80;99.90
44894;DHT22;30625;52.206;21.030;2023-01-13T16:30:05;8.70;99.90
44894;DHT22;30625;52.206;21.030;2023-01-13T16:32:31;8.70;99.90
44894;DHT22;30625;52.206;21.030;2023-01-13T16:34:56;8.70;99.90
44894;DHT22;30625;52.206;21.030;2023-01-13T16:37:26;8.70;99.90
44894;DHT22;30625;52.206;21.030;2023-01-13T16:39:52;8.70;99.90
44894;DHT22;30625;52.206;21.030;2023-01-13T16:42:19;8.70;99.90
44894;DHT22;30625;52.206;21.030;2023-01-13T16:44:45;8.80;99.90
44894;DHT22;30625;52.206;21.030;2023-01-13T16:47:15;8.80;99.90
44894;DHT22;30625;52.206;21.030;2023-01-13T16:49:42;8.60;99.90
44894;DHT22;30625;52.206;21.030;2023-01-13T16:54:43;8.80;99.90
44894;DHT22;30625;52.206;21.030;2023-01-13T16:57:14;8.80;99.90
44894;DHT22;30625;52.206;21.030;2023-01-13T16:59:40;8.80;99.90
44894;DHT22;30625;52.206;21.030;2023-01-13T17:02:15;8.80;99.90
44894;DHT22;30625;52.206;21.030;2023-01-13T17:04:42;8.80;99.90
44894;DHT22;30625;52.206;21.030;2023-01-13T17:07:10;8.80;99.90
44894;DHT22;30625;52.206;21.030;2023-01-13T17:09:42;8.80;99.90
44894;DHT22;30625;52.206;21.030;2023-01-13T17:12:09;8.80;99.90
44894;DHT22;30625;52.206;21.030;2023-01-13T17:14:34;8.80;99.90
44894;DHT22;30625;52.206;21.030;2023-01-13T17:17:00;8.80;99.90
44894;DHT22;30625;52.206;21.030;2023-01-13T17:19:26;8.80;99.90
44894;DHT22;30625;52.206;21.030;2023-01-13T17:21:51;8.80;99.90
44894;DHT22;30625;52.206;21.030;2023-01-13T17:24:17;8.80;99.90
44894;DHT22;30625;52.206;21.030;2023-01-13T17:27:31;8.80;99.90
44894;DHT22;30625;52.206;21.030;2023-01-13T17:29:59;8.80;99.90
44894;DHT22;30625;52.206;21.030;2023-01-13T17:35:42;8.20;99.90
44894;DHT22;30625;52.206;21.030;2023-01-13T17:38:16;8.70;99.90
44894;DHT22;30625;52.206;21.030;2023-01-13T17:43:18;8.70;99.90
44894;DHT22;30625;52.206;21.030;2023-01-13T17:45:43;8.70;99.90
44894;DHT22;30625;52.206;21.030;2023-01-13T17:48:09;8.70;99.90
44894;DHT22;30625;52.206;21.030;2023-01-13T17:50:35;8.70;99.90
44894;DHT22;30625;52.206;21.030;2023-01-13T17:53:01;8.70;99.90
44894;DHT22;30625;52.206;21.030;2023-01-13T17:55:30;8.70;99.90
44894;DHT22;30625;52.206;21.030;2023-01-13T17:57:55;8.60;99.90
44894;DHT22;30625;52.206;21.030;2023-01-13T18:00:21;8.50;99.90
44894;DHT22;30625;52.206;21.030;2023-01-13T18:02:59;8.40;99.90
44894;DHT22;30625;52.206;21.030;2023-01-13T18:05:26;8.40;99.90
44894;DHT22;30625;52.206;21.030;2023-01-13T18:07:52;8.30;99.90
44894;DHT22;30625;52.206;21.030;2023-01-13T18:10:18;8.20;99.90
44894;DHT22;30625;52.206;21.030;2023-01-13T18:12:46;8.10;99.90
44894;DHT22;30625;52.206;21.030;2023-01-13T18:18:19;8.00;99.90
44894;DHT22;30625;52.206;21.030;2023-01-13T18:20:48;9.50;99.90
44894;DHT22;30625;52.206;21.030;2023-01-13T18:23:34;7.90;99.90
44894;DHT22;30625;52.206;21.030;2023-01-13T18:26:19;7.90;99.90
44894;DHT22;30625;52.206;21.030;2023-01-13T18:29:07;7.80;99.90
44894;DHT22;30625;52.206;21.030;2023-01-13T18:31:33;7.80;99.90
44894;DHT22;30625;52.206;21.030;2023-01-13T18:34:01;7.80;99.90
44894;DHT22;30625;52.206;21.030;2023-01-13T18:36:35;7.70;99.90
44894;DHT22;30625;52.206;21.030;2023-01-13T18:39:10;7.70;99.90
44894;DHT22;30625;52.206;21.030;2023-01-13T18:41:39;7.70;99.90
44894;DHT22;30625;52.206;21.030;2023-01-13T18:44:29;7.70;99.90
44894;DHT22;30625;52.206;21.030;2023-01-13T18:53:01;7.60;99.90